createdAt,value
2019-03-10T00:00:02.194Z,2.57
2019-03-10T00:02:32.091Z,4.13
2019-03-10T00:05:00.384Z,2.87
2019-03-10T00:07:28.842Z,3.83
2019-03-10T00:09:57.200Z,2.33
2019-03-10T00:12:25.627Z,4.20
2019-03-10T00:14:54.303Z,2.60
2019-03-10T00:17:22.505Z,3.03
2019-03-10T00:19:51.089Z,3.23
2019-03-10T00:22:19.526Z,3.50
2019-03-10T00:24:47.780Z,1.93
2019-03-10T00:27:16.142Z,2.40
2019-03-10T00:29:44.485Z,2.90
2019-03-10T00:32:12.746Z,3.17
2019-03-10T00:34:41.214Z,3.03
2019-03-10T00:37:09.630Z,2.90
2019-03-10T00:39:39.513Z,3.00
2019-03-10T00:42:07.501Z,1.47
2019-03-10T00:44:37.233Z,1.47
2019-03-10T00:47:07.034Z,1.57
2019-03-10T00:49:36.734Z,2.03
2019-03-10T00:52:06.544Z,2.90
2019-03-10T00:54:34.814Z,1.87
2019-03-10T00:57:03.202Z,2.23
2019-03-10T00:59:31.585Z,1.33
2019-03-10T01:01:59.839Z,2.80
2019-03-10T01:04:28.236Z,2.30
2019-03-10T01:06:56.545Z,2.17
2019-03-10T01:09:24.980Z,2.40
2019-03-10T01:11:53.427Z,2.70
2019-03-10T01:14:21.962Z,2.23
2019-03-10T01:16:50.324Z,2.03
2019-03-10T01:19:19.193Z,1.97
2019-03-10T01:21:48.634Z,1.23
2019-03-10T01:24:16.896Z,1.77
2019-03-10T01:26:45.238Z,2.00
2019-03-10T01:29:13.681Z,1.40
2019-03-10T01:31:43.466Z,1.93
2019-03-10T01:34:13.288Z,1.70
2019-03-10T01:36:41.426Z,1.70
2019-03-10T01:39:10.525Z,1.27
2019-03-10T01:41:38.845Z,1.67
2019-03-10T01:44:07.221Z,1.97
2019-03-10T01:46:35.526Z,1.40
2019-03-10T01:49:03.854Z,1.57
2019-03-10T01:51:32.228Z,3.03
2019-03-10T01:54:00.477Z,1.67
2019-03-10T01:56:28.806Z,1.50
2019-03-10T01:58:57.104Z,1.77
2019-03-10T02:01:25.385Z,1.63
2019-03-10T02:03:53.741Z,1.67
2019-03-10T02:06:22.121Z,2.27
2019-03-10T02:08:50.373Z,1.70
2019-03-10T02:11:18.666Z,1.93
2019-03-10T02:13:46.941Z,1.80
2019-03-10T02:16:15.325Z,1.83
2019-03-10T02:18:43.633Z,1.87
2019-03-10T02:21:12.102Z,2.40
2019-03-10T02:23:40.486Z,2.07
2019-03-10T02:26:08.754Z,2.10
2019-03-10T02:28:37.139Z,2.70
2019-03-10T02:31:07.995Z,2.33
2019-03-10T02:33:36.446Z,1.57
2019-03-10T02:36:04.740Z,1.90
2019-03-10T02:38:33.106Z,1.50
2019-03-10T02:41:03.066Z,2.63
2019-03-10T02:43:31.299Z,0.90
2019-03-10T02:45:59.563Z,1.50
2019-03-10T02:48:27.802Z,1.37
2019-03-10T02:50:56.125Z,1.30
2019-03-10T02:53:24.457Z,1.53
2019-03-10T02:55:54.265Z,1.70
2019-03-10T02:58:22.706Z,2.13
2019-03-10T03:00:51.110Z,1.23
2019-03-10T03:03:19.478Z,1.20
2019-03-10T03:05:49.181Z,1.37
2019-03-10T03:08:17.682Z,1.77
2019-03-10T03:10:46.034Z,1.00
2019-03-10T03:13:14.234Z,1.20
2019-03-10T03:15:42.546Z,1.07
2019-03-10T03:18:10.954Z,1.07
2019-03-10T03:20:39.366Z,1.77
2019-03-10T03:23:07.695Z,1.43
2019-03-10T03:25:36.109Z,0.93
2019-03-10T03:28:04.519Z,1.43
2019-03-10T03:30:33.926Z,1.03
2019-03-10T03:33:02.401Z,1.20
2019-03-10T03:35:32.307Z,1.40
2019-03-10T03:38:00.601Z,1.40
2019-03-10T03:40:28.968Z,1.40
2019-03-10T03:42:57.413Z,1.23
2019-03-10T03:45:25.909Z,0.93
2019-03-10T03:47:54.273Z,2.07
2019-03-10T03:50:22.640Z,1.53
2019-03-10T03:52:50.929Z,1.43
2019-03-10T03:55:19.261Z,1.43
2019-03-10T03:57:47.529Z,1.53
2019-03-10T04:00:16.888Z,2.43
2019-03-10T04:02:45.327Z,2.47
2019-03-10T04:05:13.717Z,1.80
2019-03-10T04:07:41.895Z,2.60
2019-03-10T04:10:10.157Z,1.97
2019-03-10T04:12:38.583Z,2.33
2019-03-10T04:15:06.910Z,1.83
2019-03-10T04:17:36.829Z,2.03
2019-03-10T04:20:06.790Z,1.73
2019-03-10T04:22:35.115Z,2.40
2019-03-10T04:25:04.554Z,2.27
2019-03-10T04:27:33.033Z,2.70
2019-03-10T04:30:01.336Z,2.20
2019-03-10T04:32:30.199Z,2.63
2019-03-10T04:34:58.514Z,2.37
2019-03-10T04:37:26.775Z,1.37
2019-03-10T04:39:55.262Z,1.80
2019-03-10T04:42:23.462Z,1.60
2019-03-10T04:44:51.767Z,1.27
2019-03-10T04:47:21.121Z,2.00
2019-03-10T04:49:49.461Z,1.33
2019-03-10T04:52:17.696Z,1.50
2019-03-10T04:54:47.581Z,0.77
2019-03-10T04:57:17.522Z,1.73
2019-03-10T04:59:45.822Z,1.43
2019-03-10T05:02:14.106Z,1.47
2019-03-10T05:04:42.489Z,1.60
2019-03-10T05:07:11.837Z,1.27
2019-03-10T05:09:40.033Z,1.30
2019-03-10T05:12:08.270Z,1.10
2019-03-10T05:14:36.585Z,1.77
2019-03-10T05:17:05.069Z,1.43
2019-03-10T05:19:33.315Z,1.27
2019-03-10T05:22:04.817Z,0.70
2019-03-10T05:24:33.142Z,0.87
2019-03-10T05:27:01.384Z,1.40
2019-03-10T05:29:29.780Z,1.33
2019-03-10T05:31:58.035Z,1.17
2019-03-10T05:34:26.416Z,1.60
2019-03-10T05:36:54.662Z,1.30
2019-03-10T05:39:22.960Z,2.17
2019-03-10T05:41:51.239Z,1.47
2019-03-10T05:44:19.519Z,1.40
2019-03-10T05:46:47.764Z,1.10
2019-03-10T05:49:16.028Z,1.77
2019-03-10T05:51:44.339Z,1.53
2019-03-10T05:54:12.632Z,1.30
2019-03-10T05:56:41.084Z,1.63
2019-03-10T05:59:09.266Z,1.73
2019-03-10T06:01:37.545Z,1.50
2019-03-10T06:04:05.895Z,2.60
2019-03-10T06:06:34.279Z,1.20
2019-03-10T06:09:02.488Z,1.70
2019-03-10T06:11:32.072Z,0.87
2019-03-10T06:14:00.477Z,1.43
2019-03-10T06:16:28.782Z,2.00
2019-03-10T06:18:57.214Z,1.37
2019-03-10T06:21:25.477Z,2.60
2019-03-10T06:23:53.797Z,1.40
2019-03-10T06:29:37.616Z,1.33
2019-03-10T06:32:05.863Z,1.53
2019-03-10T06:34:34.248Z,1.23
2019-03-10T06:37:02.650Z,1.73
2019-03-10T06:39:30.977Z,1.97
2019-03-10T06:41:59.261Z,1.57
2019-03-10T06:44:27.592Z,1.23
2019-03-10T06:46:55.967Z,1.60
2019-03-10T06:49:24.269Z,1.60
2019-03-10T06:51:53.758Z,2.23
2019-03-10T06:54:22.176Z,1.67
2019-03-10T06:56:51.676Z,2.10
2019-03-10T06:59:20.114Z,1.70
2019-03-10T07:01:48.494Z,2.00
2019-03-10T07:04:16.673Z,1.40
2019-03-10T07:06:44.993Z,1.47
2019-03-10T07:09:13.262Z,1.70
2019-03-10T07:11:41.554Z,1.40
2019-03-10T07:14:09.876Z,2.70
2019-03-10T07:16:38.305Z,1.53
2019-03-10T07:19:06.529Z,2.07
2019-03-10T07:21:34.792Z,1.47
2019-03-10T07:24:04.257Z,1.47
2019-03-10T07:26:32.467Z,2.03
2019-03-10T07:29:02.399Z,1.97
2019-03-10T07:34:48.526Z,1.80
2019-03-10T07:37:18.323Z,2.57
2019-03-10T07:39:48.261Z,2.33
2019-03-10T07:42:18.119Z,1.17
2019-03-10T07:44:48.117Z,1.30
2019-03-10T07:47:18.117Z,1.87
2019-03-10T07:49:48.020Z,1.00
2019-03-10T07:52:20.593Z,1.60
2019-03-10T07:54:49.476Z,2.20
2019-03-10T07:57:19.422Z,1.70
2019-03-10T07:59:49.334Z,1.10
2019-03-10T08:02:19.342Z,2.30
2019-03-10T08:04:49.226Z,1.93
2019-03-10T08:07:19.210Z,2.23
2019-03-10T08:09:49.083Z,2.63
2019-03-10T08:12:19.107Z,1.90
2019-03-10T08:14:49.015Z,1.90
2019-03-10T08:17:18.970Z,1.40
2019-03-10T08:19:48.951Z,1.97
2019-03-10T08:22:18.981Z,1.63
2019-03-10T08:24:48.921Z,1.53
2019-03-10T08:27:18.916Z,1.50
2019-03-10T08:29:48.921Z,2.07
2019-03-10T08:32:18.831Z,1.50
2019-03-10T08:34:48.783Z,1.20
2019-03-10T08:37:18.627Z,1.97
2019-03-10T08:39:46.651Z,1.43
2019-03-10T08:42:20.607Z,2.07
2019-03-10T08:44:48.725Z,2.03
2019-03-10T08:47:18.684Z,2.00
2019-03-10T08:49:48.556Z,1.23
2019-03-10T08:52:18.554Z,1.43
2019-03-10T08:54:48.474Z,1.23
2019-03-10T08:57:18.483Z,1.60
2019-03-10T08:59:48.422Z,1.40
2019-03-10T09:02:18.375Z,2.50
2019-03-10T09:04:48.232Z,1.50
2019-03-10T09:07:18.190Z,2.07
2019-03-10T09:09:48.131Z,2.43
2019-03-10T09:12:18.127Z,2.03
2019-03-10T09:14:49.157Z,1.07
2019-03-10T09:17:19.048Z,1.07
2019-03-10T09:19:49.198Z,1.47
2019-03-10T09:22:19.169Z,1.70
2019-03-10T09:24:49.223Z,1.30
2019-03-10T09:27:19.164Z,1.20
2019-03-10T09:29:49.261Z,1.83
2019-03-10T09:32:19.363Z,1.80
2019-03-10T09:34:49.286Z,2.17
2019-03-10T09:37:19.318Z,1.20
2019-03-10T09:39:49.213Z,1.27
2019-03-10T09:42:19.029Z,1.33
2019-03-10T09:44:48.837Z,1.10
2019-03-10T09:47:18.789Z,1.43
2019-03-10T09:49:48.772Z,1.00
2019-03-10T09:52:18.761Z,1.40
2019-03-10T09:54:48.739Z,1.67
2019-03-10T09:57:18.840Z,1.10
2019-03-10T09:59:49.839Z,1.57
2019-03-10T10:02:20.017Z,2.03
2019-03-10T10:04:50.018Z,1.60
2019-03-10T10:07:20.059Z,1.00
2019-03-10T10:09:50.038Z,1.53
2019-03-10T10:12:20.018Z,1.60
2019-03-10T10:14:50.081Z,1.13
2019-03-10T10:17:20.049Z,1.53
2019-03-10T10:19:50.087Z,1.53
2019-03-10T10:22:18.297Z,1.60
2019-03-10T10:24:48.341Z,1.80
2019-03-10T10:27:20.202Z,1.20
2019-03-10T10:29:50.327Z,1.67
2019-03-10T10:32:20.322Z,0.93
2019-03-10T10:34:50.300Z,1.67
2019-03-10T10:37:20.288Z,1.50
2019-03-10T10:39:49.357Z,1.43
2019-03-10T10:42:19.391Z,1.60
2019-03-10T10:44:50.419Z,1.00
2019-03-10T10:47:21.399Z,1.57
2019-03-10T10:49:51.448Z,1.93
2019-03-10T10:52:21.513Z,1.20
2019-03-10T10:54:51.542Z,1.57
2019-03-10T10:57:21.498Z,1.90
2019-03-10T10:59:51.362Z,1.50
2019-03-10T11:02:21.408Z,2.13
2019-03-10T11:04:51.298Z,0.97
2019-03-10T11:07:21.269Z,1.13
2019-03-10T11:09:51.306Z,2.03
2019-03-10T11:12:21.253Z,2.27
2019-03-10T11:14:51.560Z,1.40
2019-03-10T11:17:19.605Z,2.10
2019-03-10T11:19:49.490Z,1.33
2019-03-10T11:22:19.463Z,2.10
2019-03-10T11:24:49.481Z,2.33
2019-03-10T11:27:19.510Z,2.23
2019-03-10T11:29:49.440Z,1.97
2019-03-10T11:32:19.329Z,1.83
2019-03-10T11:34:49.319Z,1.87
2019-03-10T11:37:19.336Z,2.00
2019-03-10T11:39:49.250Z,2.17
2019-03-10T11:42:19.222Z,2.00
2019-03-10T11:44:49.181Z,1.77
2019-03-10T11:47:19.098Z,1.90
2019-03-10T11:49:49.087Z,1.90
2019-03-10T11:52:19.035Z,1.60
2019-03-10T11:54:49.011Z,2.07
2019-03-10T11:57:20.342Z,2.27
2019-03-10T11:59:49.366Z,2.10
2019-03-10T12:05:35.161Z,2.20
2019-03-10T12:11:20.621Z,1.87
2019-03-10T12:17:05.404Z,2.20
2019-03-10T12:22:50.298Z,1.97
2019-03-10T12:28:33.870Z,2.07
2019-03-10T12:34:19.084Z,2.00
2019-03-10T12:39:51.835Z,2.70
2019-03-10T12:42:20.204Z,2.47
2019-03-10T12:48:04.201Z,2.20
2019-03-10T12:53:49.183Z,2.20
2019-03-10T12:59:33.656Z,1.93
2019-03-10T13:05:18.198Z,2.27
2019-03-10T13:10:50.452Z,2.30
2019-03-10T13:13:18.837Z,1.30
2019-03-10T13:19:04.089Z,1.67
2019-03-10T13:21:32.497Z,2.00
2019-03-10T13:27:16.517Z,1.97
2019-03-10T13:29:45.003Z,2.33
2019-03-10T13:32:13.517Z,2.40
2019-03-10T13:34:41.869Z,2.10
2019-03-10T13:37:10.388Z,2.27
2019-03-10T13:42:54.977Z,2.30
2019-03-10T13:48:40.015Z,1.90
2019-03-10T13:51:08.409Z,1.97
2019-03-10T13:53:36.804Z,1.83
2019-03-10T13:56:05.175Z,1.67
2019-03-10T14:01:48.963Z,1.60
2019-03-10T14:04:17.415Z,1.70
2019-03-10T14:06:45.743Z,1.70
2019-03-10T14:09:14.287Z,1.53
2019-03-10T14:14:46.903Z,1.80
2019-03-10T14:17:15.262Z,2.60
2019-03-10T14:19:43.603Z,1.60
2019-03-10T14:22:11.981Z,2.37
2019-03-10T14:24:41.537Z,2.20
2019-03-10T14:27:10.036Z,1.53
2019-03-10T14:32:54.707Z,1.33
2019-03-10T14:35:23.070Z,2.07
2019-03-10T14:37:51.577Z,2.30
2019-03-10T14:40:20.780Z,1.53
2019-03-10T14:42:51.582Z,1.80
2019-03-10T14:45:20.066Z,1.50
2019-03-10T14:47:48.429Z,2.60
2019-03-10T14:50:17.622Z,2.03
2019-03-10T14:52:46.003Z,2.10
2019-03-10T14:58:30.194Z,1.73
2019-03-10T15:00:58.651Z,1.60
2019-03-10T15:03:26.940Z,1.97
2019-03-10T15:09:12.690Z,1.73
2019-03-10T15:11:41.133Z,2.10
2019-03-10T15:14:09.499Z,1.77
2019-03-10T15:16:37.904Z,2.00
2019-03-10T15:19:06.282Z,1.67
2019-03-10T15:24:51.589Z,2.00
2019-03-10T15:27:23.228Z,2.33
2019-03-10T15:29:49.731Z,1.90
2019-03-10T15:35:34.350Z,2.33
2019-03-10T15:38:02.835Z,2.93
2019-03-10T15:43:48.049Z,4.27
2019-03-10T15:46:16.265Z,3.30
2019-03-10T15:48:44.685Z,3.23
2019-03-10T15:54:28.597Z,2.97
2019-03-10T15:56:58.476Z,3.67
2019-03-10T16:02:43.264Z,2.10
2019-03-10T16:08:27.335Z,3.90
2019-03-10T16:14:12.479Z,3.90
2019-03-10T16:19:56.602Z,8.03
2019-03-10T16:25:41.377Z,4.73
2019-03-10T16:28:09.689Z,6.87
2019-03-10T16:30:37.872Z,6.83
2019-03-10T16:33:06.404Z,12.20
2019-03-10T16:38:50.964Z,3.47
2019-03-10T16:41:19.839Z,3.57
2019-03-10T16:46:53.276Z,4.10
2019-03-10T16:49:21.670Z,4.80
2019-03-10T16:55:08.223Z,13.30
2019-03-10T16:57:36.486Z,10.93
2019-03-10T17:00:06.286Z,9.63
2019-03-10T17:02:36.518Z,4.57
2019-03-10T17:05:06.692Z,3.10
2019-03-10T17:07:35.295Z,3.60
2019-03-10T17:10:04.999Z,3.17
2019-03-10T17:12:33.267Z,2.50
2019-03-10T17:15:01.684Z,3.27
2019-03-10T17:17:31.651Z,3.17
2019-03-10T17:23:15.804Z,9.47
2019-03-10T17:28:59.474Z,5.00
2019-03-10T17:31:27.824Z,4.07
2019-03-10T17:37:11.964Z,2.30
2019-03-10T17:39:40.379Z,2.77
2019-03-10T17:45:25.760Z,5.57
2019-03-10T17:51:14.684Z,12.23
2019-03-10T17:56:59.810Z,11.00
2019-03-10T18:02:44.959Z,8.53
2019-03-10T18:08:29.101Z,10.40
2019-03-10T18:10:57.458Z,11.77
2019-03-10T18:13:25.651Z,8.50
2019-03-10T18:15:54.024Z,11.47
2019-03-10T18:21:51.005Z,13.47
2019-03-10T18:27:36.520Z,12.70
2019-03-10T18:30:06.288Z,11.40
2019-03-10T18:35:40.018Z,8.70
2019-03-10T18:41:24.806Z,12.07
2019-03-10T18:43:53.365Z,9.27
2019-03-10T18:46:21.764Z,11.27
2019-03-10T18:52:06.210Z,6.17
2019-03-10T18:57:51.124Z,7.90
2019-03-10T19:00:20.764Z,6.60
2019-03-10T19:02:49.123Z,7.57
2019-03-10T19:08:33.861Z,7.37
2019-03-10T19:14:18.580Z,5.87
2019-03-10T19:20:05.763Z,6.27
2019-03-10T19:22:34.352Z,9.80
2019-03-10T19:25:02.669Z,9.07
2019-03-10T19:27:31.413Z,7.93
2019-03-10T19:33:04.504Z,8.20
2019-03-10T19:35:33.086Z,8.60
2019-03-10T19:38:01.662Z,10.30
2019-03-10T19:43:56.726Z,10.27
2019-03-10T19:49:41.291Z,9.63
2019-03-10T19:52:09.637Z,11.17
2019-03-10T19:57:55.703Z,11.17
2019-03-10T20:03:40.999Z,11.83
2019-03-10T20:06:09.244Z,11.50
2019-03-10T20:08:37.708Z,8.73
2019-03-10T20:11:06.128Z,11.37
2019-03-10T20:16:51.970Z,11.43
2019-03-10T20:22:36.132Z,15.63
2019-03-10T20:28:20.794Z,12.07
2019-03-10T20:34:05.085Z,9.73
2019-03-10T20:36:33.496Z,12.53
2019-03-10T20:42:18.127Z,10.87
2019-03-10T20:44:46.409Z,8.27
2019-03-10T20:47:14.741Z,11.77
2019-03-10T20:52:47.658Z,12.13
2019-03-10T20:55:16.171Z,13.27
2019-03-10T20:57:44.816Z,10.27
2019-03-10T21:00:14.190Z,10.77
2019-03-10T21:05:47.177Z,12.17
2019-03-10T21:11:33.535Z,10.20
2019-03-10T21:17:18.600Z,10.80
2019-03-10T21:23:04.053Z,9.87
2019-03-10T21:28:48.257Z,9.30
2019-03-10T21:34:32.753Z,12.03
2019-03-10T21:37:01.083Z,9.87
2019-03-10T21:42:34.740Z,10.90
2019-03-10T21:48:19.406Z,10.30
2019-03-10T21:54:03.787Z,11.63
2019-03-10T21:56:32.091Z,8.30
2019-03-10T22:02:16.429Z,11.57
2019-03-10T22:07:49.544Z,10.07
2019-03-10T22:10:27.163Z,11.83
2019-03-10T22:16:04.757Z,12.67
2019-03-10T22:18:33.103Z,12.87
2019-03-10T22:21:01.316Z,15.33
2019-03-10T22:23:30.044Z,12.93
2019-03-10T22:25:58.413Z,11.47
2019-03-10T22:31:54.893Z,12.97
2019-03-10T22:37:39.753Z,11.07
2019-03-10T22:43:24.942Z,10.03
2019-03-10T22:49:09.312Z,10.67
2019-03-10T22:54:54.149Z,11.13
2019-03-10T23:00:52.574Z,12.10
2019-03-10T23:06:38.343Z,10.03
2019-03-10T23:09:06.982Z,12.87
2019-03-10T23:11:36.902Z,12.53
2019-03-10T23:14:05.145Z,11.77
2019-03-10T23:16:33.553Z,9.33
2019-03-10T23:19:01.895Z,11.57
2019-03-10T23:21:30.318Z,10.80
2019-03-10T23:23:58.570Z,10.87
2019-03-10T23:26:27.071Z,11.40
2019-03-10T23:28:55.397Z,12.87
2019-03-10T23:34:40.169Z,8.67
2019-03-10T23:37:08.551Z,7.93
2019-03-10T23:42:53.199Z,7.60
2019-03-10T23:48:38.597Z,12.30
2019-03-10T23:54:23.305Z,9.47
2019-03-10T23:59:55.587Z,12.27
